createdAt,value
2022-07-29T00:02:01.311Z,31.58
2022-07-29T00:04:32.785Z,36.27
2022-07-29T00:07:05.051Z,50.33
2022-07-29T00:09:51.033Z,45.88
2022-07-29T00:12:26.681Z,48.47
2022-07-29T00:14:58.879Z,60.13
2022-07-29T00:20:00.937Z,43.67
2022-07-29T00:22:32.396Z,50.05
2022-07-29T00:25:03.910Z,41.65
2022-07-29T00:27:35.662Z,39.95
2022-07-29T00:30:08.385Z,37.53
2022-07-29T00:32:40.425Z,41.67
2022-07-29T00:35:30.136Z,37.07
2022-07-29T00:38:02.130Z,32.35
2022-07-29T00:43:04.563Z,23.65
2022-07-29T00:45:36.488Z,21.02
2022-07-29T00:48:11.187Z,21.52
2022-07-29T00:50:42.924Z,20.23
2022-07-29T00:53:15.923Z,23.92
2022-07-29T00:55:47.779Z,17.13
2022-07-29T00:58:19.391Z,16.63
2022-07-29T01:00:50.967Z,18.38
2022-07-29T01:03:22.348Z,16.75
2022-07-29T01:05:54.413Z,21.00
2022-07-29T01:10:58.022Z,15.63
2022-07-29T01:13:29.766Z,18.75
2022-07-29T01:16:24.187Z,16.63
2022-07-29T01:19:03.453Z,17.88
2022-07-29T01:21:34.649Z,14.60
2022-07-29T01:24:21.878Z,14.90
2022-07-29T01:27:02.446Z,16.00
2022-07-29T01:29:55.851Z,15.70
2022-07-29T01:32:34.510Z,14.15
2022-07-29T01:35:28.629Z,14.57
2022-07-29T01:38:28.270Z,18.20
2022-07-29T01:41:08.124Z,15.02
2022-07-29T01:43:59.031Z,16.35
2022-07-29T01:46:41.285Z,14.77
2022-07-29T01:49:18.236Z,14.00
2022-07-29T01:52:08.188Z,17.23
2022-07-29T01:54:46.832Z,15.25
2022-07-29T01:57:22.360Z,15.73
2022-07-29T01:59:55.564Z,17.10
2022-07-29T02:02:29.041Z,20.48
2022-07-29T02:05:02.547Z,20.15
2022-07-29T02:07:36.327Z,20.00
2022-07-29T02:10:10.147Z,19.95
2022-07-29T02:12:43.550Z,20.42
2022-07-29T02:15:22.996Z,21.17
2022-07-29T02:18:21.017Z,22.52
2022-07-29T02:20:57.423Z,22.40
2022-07-29T02:23:30.412Z,23.13
2022-07-29T02:26:03.071Z,23.08
2022-07-29T02:28:36.026Z,23.85
2022-07-29T02:31:08.172Z,23.30
2022-07-29T02:33:43.144Z,23.27
2022-07-29T02:36:15.295Z,22.42
2022-07-29T02:38:54.291Z,24.17
2022-07-29T02:41:52.791Z,23.90
2022-07-29T02:44:30.051Z,26.02
2022-07-29T02:47:15.862Z,24.48
2022-07-29T02:49:59.156Z,23.02
2022-07-29T02:52:57.770Z,23.92
2022-07-29T02:55:40.590Z,22.95
2022-07-29T02:58:31.867Z,22.42
2022-07-29T03:01:11.928Z,23.40
2022-07-29T03:03:47.868Z,22.83
2022-07-29T03:06:28.227Z,22.75
2022-07-29T03:09:13.950Z,22.83
2022-07-29T03:11:50.512Z,22.23
2022-07-29T03:14:23.217Z,22.85
2022-07-29T03:16:55.663Z,22.48
2022-07-29T03:19:27.597Z,23.05
2022-07-29T03:22:01.652Z,21.17
2022-07-29T03:24:35.766Z,20.73
2022-07-29T03:27:08.125Z,22.30
2022-07-29T03:29:39.552Z,21.02
2022-07-29T03:32:11.249Z,20.63
2022-07-29T03:34:42.592Z,21.15
2022-07-29T03:37:13.953Z,19.77
2022-07-29T03:39:47.223Z,19.58
2022-07-29T03:42:22.618Z,19.13
2022-07-29T03:44:57.147Z,19.73
2022-07-29T03:47:49.586Z,20.67
2022-07-29T03:50:24.065Z,19.50
2022-07-29T03:52:56.033Z,19.20
2022-07-29T03:55:28.653Z,20.05
2022-07-29T03:58:01.294Z,17.60
2022-07-29T04:00:36.013Z,20.95
2022-07-29T04:03:10.624Z,19.20
2022-07-29T04:05:43.150Z,19.02
2022-07-29T04:08:14.634Z,18.73
2022-07-29T04:10:46.153Z,19.38
2022-07-29T04:13:17.879Z,19.98
2022-07-29T04:15:49.418Z,18.35
2022-07-29T04:18:20.852Z,19.20
2022-07-29T04:20:52.614Z,18.83
2022-07-29T04:25:54.932Z,20.13
2022-07-29T04:28:26.345Z,20.83
2022-07-29T04:30:57.989Z,25.25
2022-07-29T04:33:29.476Z,20.80
2022-07-29T04:36:00.907Z,21.60
2022-07-29T04:38:32.555Z,21.05
2022-07-29T04:41:04.138Z,21.50
2022-07-29T04:43:38.931Z,24.35
2022-07-29T04:46:10.624Z,26.70
2022-07-29T04:48:42.208Z,29.42
2022-07-29T04:51:14.416Z,26.27
2022-07-29T04:53:45.839Z,28.63
2022-07-29T04:56:17.249Z,37.08
2022-07-29T04:58:48.986Z,27.92
2022-07-29T05:01:20.772Z,25.80
2022-07-29T05:03:53.974Z,26.42
2022-07-29T05:06:28.437Z,31.70
2022-07-29T05:08:59.719Z,35.03
2022-07-29T05:11:31.091Z,32.45
2022-07-29T05:14:02.558Z,28.02
2022-07-29T05:16:34.917Z,27.20
2022-07-29T05:21:42.224Z,26.85
2022-07-29T05:24:14.340Z,32.28
2022-07-29T05:26:48.062Z,30.00
2022-07-29T05:29:44.127Z,31.80
2022-07-29T05:32:11.096Z,26.10
2022-07-29T05:34:50.722Z,27.55
2022-07-29T05:37:23.383Z,24.27
2022-07-29T05:39:56.705Z,30.10
2022-07-29T05:42:29.566Z,28.27
2022-07-29T05:45:01.217Z,23.27
2022-07-29T05:50:04.428Z,25.95
2022-07-29T05:52:36.624Z,29.10
2022-07-29T05:55:08.476Z,29.58
2022-07-29T06:00:11.694Z,23.90
2022-07-29T06:02:45.895Z,23.40
2022-07-29T06:05:17.868Z,22.13
2022-07-29T06:07:50.213Z,24.15
2022-07-29T06:10:23.994Z,21.73
2022-07-29T06:12:58.918Z,23.33
2022-07-29T06:15:30.649Z,23.15
2022-07-29T06:18:02.475Z,22.33
2022-07-29T06:20:35.008Z,21.35
2022-07-29T06:23:07.053Z,22.02
2022-07-29T06:25:39.153Z,19.58
2022-07-29T06:30:42.729Z,21.30
2022-07-29T06:33:21.173Z,19.90
2022-07-29T06:35:53.541Z,17.98
2022-07-29T06:38:30.780Z,19.85
2022-07-29T06:41:08.358Z,20.10
2022-07-29T06:43:51.854Z,20.65
2022-07-29T06:46:25.228Z,20.08
2022-07-29T06:48:57.129Z,18.35
2022-07-29T06:51:29.919Z,18.23
2022-07-29T06:54:02.654Z,18.10
2022-07-29T06:56:40.469Z,17.42
2022-07-29T06:59:13.714Z,15.60
2022-07-29T07:01:46.226Z,17.20
2022-07-29T07:04:19.035Z,16.83
2022-07-29T07:09:21.470Z,15.63
2022-07-29T07:14:23.871Z,13.68
2022-07-29T07:16:55.339Z,13.48
2022-07-29T07:19:26.841Z,13.20
2022-07-29T07:21:58.475Z,12.43
2022-07-29T07:24:30.130Z,12.20
2022-07-29T07:27:01.985Z,12.57
2022-07-29T07:29:33.377Z,11.43
2022-07-29T07:32:05.623Z,13.00
2022-07-29T07:34:37.389Z,13.05
2022-07-29T07:39:40.280Z,11.32
2022-07-29T07:42:13.972Z,11.52
2022-07-29T07:45:10.989Z,10.90
2022-07-29T07:47:36.745Z,10.63
2022-07-29T07:50:18.230Z,10.30
2022-07-29T07:52:55.897Z,10.05
2022-07-29T07:55:28.058Z,10.30
2022-07-29T07:58:00.126Z,10.23
2022-07-29T08:00:31.914Z,10.45
2022-07-29T08:03:03.241Z,9.15
2022-07-29T08:05:49.862Z,8.57
2022-07-29T08:08:22.046Z,8.70
2022-07-29T08:10:58.114Z,9.48
2022-07-29T08:13:32.520Z,8.80
2022-07-29T08:16:04.227Z,8.90
2022-07-29T08:18:38.769Z,8.85
2022-07-29T08:21:10.667Z,8.57
2022-07-29T08:23:52.789Z,8.57
2022-07-29T08:26:26.126Z,8.00
2022-07-29T08:28:57.741Z,8.68
2022-07-29T08:31:29.254Z,8.00
2022-07-29T08:34:02.249Z,7.88
2022-07-29T08:36:34.395Z,7.43
2022-07-29T08:39:07.332Z,7.63
2022-07-29T08:41:39.120Z,7.35
2022-07-29T08:46:42.058Z,7.50
2022-07-29T08:49:13.662Z,8.05
2022-07-29T08:51:49.175Z,7.70
2022-07-29T08:54:21.986Z,7.85
2022-07-29T08:56:55.141Z,7.20
2022-07-29T08:59:31.281Z,6.57
2022-07-29T09:02:04.388Z,7.07
2022-07-29T09:04:38.823Z,8.15
2022-07-29T09:07:12.000Z,8.20
2022-07-29T09:09:43.766Z,6.13
2022-07-29T09:12:28.633Z,8.52
2022-07-29T09:15:01.013Z,6.43
2022-07-29T09:17:50.513Z,6.25
2022-07-29T09:20:26.824Z,6.70
2022-07-29T09:22:58.323Z,5.53
2022-07-29T09:25:41.736Z,5.70
2022-07-29T09:28:20.739Z,6.47
2022-07-29T09:31:01.513Z,6.85
2022-07-29T09:33:42.961Z,8.80
2022-07-29T09:36:14.497Z,6.50
2022-07-29T09:38:45.843Z,6.65
2022-07-29T09:41:17.290Z,6.10
2022-07-29T09:44:00.516Z,6.28
2022-07-29T09:46:32.081Z,5.53
2022-07-29T09:49:11.379Z,6.13
2022-07-29T09:51:43.780Z,5.88
2022-07-29T09:54:29.152Z,5.72
2022-07-29T09:57:00.570Z,5.72
2022-07-29T09:59:32.008Z,5.43
2022-07-29T10:04:45.107Z,5.85
2022-07-29T10:07:16.478Z,5.47
2022-07-29T10:09:58.942Z,5.38
2022-07-29T10:12:30.526Z,7.88
2022-07-29T10:15:04.612Z,6.15
2022-07-29T10:17:36.115Z,7.43
2022-07-29T10:20:16.378Z,5.43
2022-07-29T10:22:53.756Z,5.57
2022-07-29T10:25:29.186Z,12.60
2022-07-29T10:28:00.823Z,29.13
2022-07-29T10:30:32.317Z,41.95
2022-07-29T10:36:11.201Z,30.08
2022-07-29T10:38:56.798Z,87.72
2022-07-29T10:42:00.407Z,253.77
2022-07-29T10:44:32.678Z,713.00
2022-07-29T10:47:04.814Z,383.23
2022-07-29T10:52:11.828Z,179.85
2022-07-29T10:54:50.756Z,130.20
2022-07-29T10:57:53.511Z,105.03
2022-07-29T11:00:32.148Z,96.35
2022-07-29T11:03:04.684Z,87.38
2022-07-29T11:06:02.037Z,75.45
2022-07-29T11:08:40.397Z,75.60
2022-07-29T11:11:29.685Z,82.00
2022-07-29T11:14:01.395Z,75.93
2022-07-29T11:17:05.992Z,79.13
2022-07-29T11:19:40.116Z,73.53
2022-07-29T11:22:16.618Z,77.28
2022-07-29T11:25:08.030Z,79.28
2022-07-29T11:27:41.924Z,64.32
2022-07-29T11:30:14.637Z,61.60
2022-07-29T11:32:48.584Z,57.08
2022-07-29T11:35:38.525Z,47.90
2022-07-29T11:38:28.874Z,50.28
2022-07-29T11:41:29.411Z,47.45
2022-07-29T11:44:03.573Z,38.72
2022-07-29T11:46:54.280Z,43.17
2022-07-29T11:49:32.073Z,29.10
2022-07-29T11:52:05.567Z,31.92
2022-07-29T11:54:51.913Z,29.77
2022-07-29T11:57:37.204Z,36.78
2022-07-29T12:00:18.576Z,36.10
2022-07-29T12:02:50.428Z,23.63
2022-07-29T12:05:36.895Z,24.17
2022-07-29T12:08:17.028Z,20.33
2022-07-29T12:10:49.708Z,20.10
2022-07-29T12:13:37.108Z,17.35
2022-07-29T12:16:09.311Z,16.85
2022-07-29T12:18:59.250Z,15.13
2022-07-29T12:21:31.305Z,12.80
2022-07-29T12:24:09.405Z,14.00
2022-07-29T12:26:55.994Z,18.05
2022-07-29T12:29:34.685Z,13.35
2022-07-29T12:32:14.405Z,10.57
2022-07-29T12:34:51.195Z,11.23
2022-07-29T12:40:15.454Z,8.68
2022-07-29T12:43:13.417Z,7.95
2022-07-29T12:45:56.744Z,6.55
2022-07-29T12:48:42.907Z,7.00
2022-07-29T12:51:16.733Z,6.28
2022-07-29T12:54:18.551Z,6.25
2022-07-29T12:57:01.002Z,6.10
2022-07-29T12:59:32.881Z,6.47
2022-07-29T13:02:05.708Z,5.93
2022-07-29T13:04:39.972Z,7.43
2022-07-29T13:07:11.579Z,5.03
2022-07-29T13:09:50.982Z,8.65
2022-07-29T13:12:23.308Z,4.85
2022-07-29T13:14:54.886Z,5.25
2022-07-29T13:17:27.245Z,5.32
2022-07-29T13:20:14.900Z,4.88
2022-07-29T13:22:51.296Z,6.20
2022-07-29T13:25:34.220Z,6.15
2022-07-29T13:28:05.774Z,4.63
2022-07-29T13:30:46.126Z,5.47
2022-07-29T13:33:17.944Z,16.67
2022-07-29T13:35:50.236Z,6.18
2022-07-29T13:38:21.696Z,7.38
2022-07-29T13:41:03.570Z,4.70
2022-07-29T13:43:35.024Z,20.17
2022-07-29T13:46:06.915Z,7.03
2022-07-29T13:48:38.716Z,7.82
2022-07-29T13:51:11.171Z,6.45
2022-07-29T13:53:42.662Z,7.55
2022-07-29T13:56:14.093Z,9.18
2022-07-29T13:58:45.624Z,14.43
2022-07-29T14:01:17.820Z,9.23
2022-07-29T14:03:49.419Z,7.32
2022-07-29T14:06:22.297Z,9.70
2022-07-29T14:08:53.748Z,7.57
2022-07-29T14:11:25.397Z,11.77
2022-07-29T14:13:57.039Z,10.35
2022-07-29T14:16:28.781Z,6.03
2022-07-29T14:21:31.317Z,6.07
2022-07-29T14:24:17.850Z,8.38
2022-07-29T14:26:53.259Z,16.90
2022-07-29T14:29:24.850Z,19.63
2022-07-29T14:32:11.580Z,14.25
2022-07-29T14:34:43.360Z,9.55
2022-07-29T14:39:47.601Z,8.13
2022-07-29T14:44:51.777Z,7.85
2022-07-29T14:47:24.225Z,9.43
2022-07-29T14:49:55.678Z,9.07
2022-07-29T14:52:27.093Z,8.68
2022-07-29T14:54:58.554Z,12.07
2022-07-29T14:57:30.035Z,5.57
2022-07-29T15:00:01.584Z,8.13
2022-07-29T15:02:59.389Z,5.97
2022-07-29T15:05:24.324Z,8.18
2022-07-29T15:07:56.923Z,4.30
2022-07-29T15:10:31.513Z,4.03
2022-07-29T15:13:02.888Z,6.70
2022-07-29T15:15:34.313Z,4.77
2022-07-29T15:18:06.220Z,4.07
2022-07-29T15:23:11.936Z,5.30
2022-07-29T15:25:43.349Z,4.57
2022-07-29T15:28:14.771Z,3.50
2022-07-29T15:30:46.150Z,3.40
2022-07-29T15:33:17.478Z,3.83
2022-07-29T15:35:49.322Z,4.32
2022-07-29T15:38:20.997Z,4.32
2022-07-29T15:41:00.675Z,4.63
2022-07-29T15:43:32.056Z,4.70
2022-07-29T15:46:22.071Z,4.43
2022-07-29T15:48:53.518Z,4.55
2022-07-29T15:51:25.052Z,4.65
2022-07-29T15:53:57.100Z,5.03
2022-07-29T15:56:29.225Z,4.13
2022-07-29T15:59:01.446Z,4.03
2022-07-29T16:04:04.301Z,3.90
2022-07-29T16:09:07.173Z,4.07
2022-07-29T16:11:38.733Z,4.53
2022-07-29T16:14:11.007Z,4.78
2022-07-29T16:16:43.431Z,4.53
2022-07-29T16:21:45.664Z,4.15
2022-07-29T16:24:17.118Z,4.67
2022-07-29T16:26:48.463Z,4.35
2022-07-29T16:29:20.761Z,4.05
2022-07-29T16:31:52.444Z,4.10
2022-07-29T16:34:23.783Z,5.95
2022-07-29T16:36:55.080Z,4.00
2022-07-29T16:39:26.625Z,3.90
2022-07-29T16:44:32.811Z,3.80
2022-07-29T16:47:04.246Z,7.33
2022-07-29T16:49:35.698Z,3.95
2022-07-29T16:52:07.707Z,5.60
2022-07-29T16:57:11.121Z,4.82
2022-07-29T16:59:43.308Z,4.38
2022-07-29T17:02:15.306Z,4.15
2022-07-29T17:04:46.767Z,4.35
2022-07-29T17:07:18.305Z,4.30
2022-07-29T17:09:53.832Z,4.10
2022-07-29T17:12:27.234Z,4.63
2022-07-29T17:14:58.614Z,4.25
2022-07-29T17:17:39.565Z,4.90
2022-07-29T17:20:21.517Z,5.72
2022-07-29T17:22:52.787Z,8.40
2022-07-29T17:25:24.693Z,4.20
2022-07-29T17:28:00.769Z,4.83
2022-07-29T17:30:32.691Z,6.07
2022-07-29T17:33:04.152Z,5.07
2022-07-29T17:35:53.925Z,5.22
2022-07-29T17:38:25.157Z,5.35
2022-07-29T17:40:56.606Z,4.80
2022-07-29T17:43:27.891Z,11.50
2022-07-29T17:45:59.637Z,8.10
2022-07-29T17:48:31.200Z,4.63
2022-07-29T17:51:02.578Z,4.80
2022-07-29T17:53:34.012Z,4.25
2022-07-29T17:56:06.365Z,4.75
2022-07-29T18:01:09.991Z,4.85
2022-07-29T18:03:41.851Z,5.05
2022-07-29T18:06:14.123Z,4.65
2022-07-29T18:08:48.876Z,5.70
2022-07-29T18:11:20.246Z,4.88
2022-07-29T18:13:51.805Z,5.00
2022-07-29T18:18:54.341Z,5.18
2022-07-29T18:21:43.508Z,5.18
2022-07-29T18:24:17.603Z,4.67
2022-07-29T18:26:48.993Z,5.10
2022-07-29T18:29:20.392Z,4.80
2022-07-29T18:31:51.866Z,5.43
2022-07-29T18:34:23.532Z,8.07
2022-07-29T18:36:55.101Z,5.05
2022-07-29T18:39:26.639Z,6.35
2022-07-29T18:41:58.585Z,6.45
2022-07-29T18:44:29.952Z,6.45
2022-07-29T18:47:01.855Z,8.77
2022-07-29T18:49:33.688Z,6.07
2022-07-29T18:52:05.199Z,5.50
2022-07-29T18:54:36.521Z,6.78
2022-07-29T18:57:54.671Z,8.77
2022-07-29T18:59:59.709Z,5.47
2022-07-29T19:02:31.205Z,5.10
2022-07-29T19:05:02.859Z,7.65
2022-07-29T19:07:34.593Z,5.77
2022-07-29T19:10:07.462Z,6.13
2022-07-29T19:12:39.294Z,5.45
2022-07-29T19:15:12.029Z,6.75
2022-07-29T19:17:43.296Z,10.27
2022-07-29T19:20:14.872Z,5.20
2022-07-29T19:22:46.475Z,6.88
2022-07-29T19:25:17.887Z,6.10
2022-07-29T19:27:49.392Z,5.65
2022-07-29T19:30:20.822Z,5.63
2022-07-29T19:32:52.345Z,6.53
2022-07-29T19:35:29.475Z,5.43
2022-07-29T19:38:03.268Z,5.57
2022-07-29T19:40:34.608Z,5.03
2022-07-29T19:43:50.562Z,5.70
2022-07-29T19:45:57.414Z,5.60
2022-07-29T19:48:28.775Z,5.47
2022-07-29T19:51:00.179Z,5.50
2022-07-29T19:53:31.648Z,5.03
2022-07-29T19:56:03.118Z,5.30
2022-07-29T19:58:34.655Z,5.18
2022-07-29T20:01:10.318Z,5.80
2022-07-29T20:03:42.221Z,5.97
2022-07-29T20:06:14.080Z,5.37
2022-07-29T20:08:46.592Z,5.88
2022-07-29T20:11:18.254Z,5.95
2022-07-29T20:13:49.508Z,5.50
2022-07-29T20:16:20.759Z,5.03
2022-07-29T20:18:51.926Z,6.57
2022-07-29T20:21:23.507Z,5.82
2022-07-29T20:23:58.144Z,7.40
2022-07-29T20:26:29.402Z,9.77
2022-07-29T20:29:00.755Z,6.88
2022-07-29T20:31:33.401Z,5.43
2022-07-29T20:34:04.730Z,5.53
2022-07-29T20:36:36.901Z,6.68
2022-07-29T20:39:09.037Z,7.22
2022-07-29T20:41:40.634Z,7.32
2022-07-29T20:46:43.191Z,6.95
2022-07-29T20:49:14.413Z,6.18
2022-07-29T20:51:45.722Z,8.83
2022-07-29T20:54:17.031Z,6.70
2022-07-29T20:56:48.096Z,6.55
2022-07-29T20:59:19.801Z,6.32
2022-07-29T21:01:51.056Z,6.13
2022-07-29T21:04:22.706Z,5.72
2022-07-29T21:07:02.175Z,6.28
2022-07-29T21:09:33.629Z,5.57
2022-07-29T21:12:05.808Z,7.07
2022-07-29T21:14:37.341Z,5.95
2022-07-29T21:17:09.546Z,5.87
2022-07-29T21:22:11.761Z,6.85
2022-07-29T21:24:43.211Z,5.50
2022-07-29T21:27:32.552Z,7.18
2022-07-29T21:30:03.946Z,5.85
2022-07-29T21:32:35.442Z,5.63
2022-07-29T21:35:08.440Z,5.88
2022-07-29T21:37:53.622Z,5.78
2022-07-29T21:40:25.064Z,5.77
2022-07-29T21:42:57.013Z,6.00
2022-07-29T21:45:28.328Z,6.33
2022-07-29T21:48:00.051Z,5.75
2022-07-29T21:50:31.400Z,12.17
2022-07-29T21:53:03.466Z,5.43
2022-07-29T21:55:35.763Z,5.35
2022-07-29T21:58:07.586Z,7.47
2022-07-29T22:00:39.646Z,5.60
2022-07-29T22:03:11.936Z,8.68
2022-07-29T22:05:43.432Z,5.85
2022-07-29T22:08:14.956Z,5.80
2022-07-29T22:10:46.240Z,5.45
2022-07-29T22:13:17.535Z,5.47
2022-07-29T22:15:48.915Z,5.97
2022-07-29T22:18:20.718Z,9.10
2022-07-29T22:20:52.784Z,6.03
2022-07-29T22:23:24.225Z,5.65
2022-07-29T22:25:55.505Z,5.27
2022-07-29T22:28:26.815Z,5.03
2022-07-29T22:30:58.763Z,6.40
2022-07-29T22:33:30.418Z,5.65
2022-07-29T22:36:01.849Z,5.55
2022-07-29T22:38:33.299Z,5.72
2022-07-29T22:41:04.713Z,10.20
2022-07-29T22:43:36.146Z,5.78
2022-07-29T22:46:10.092Z,6.23
2022-07-29T22:48:42.254Z,6.75
2022-07-29T22:51:13.588Z,7.72
2022-07-29T22:53:44.930Z,6.30
2022-07-29T22:56:16.402Z,8.02
2022-07-29T22:58:47.810Z,7.53
2022-07-29T23:01:37.745Z,7.03
2022-07-29T23:04:09.569Z,7.53
2022-07-29T23:06:40.864Z,8.10
2022-07-29T23:09:12.775Z,7.32
2022-07-29T23:11:44.223Z,6.43
2022-07-29T23:14:15.841Z,7.78
2022-07-29T23:16:47.860Z,7.15
2022-07-29T23:19:19.514Z,7.57
2022-07-29T23:21:50.973Z,6.93
2022-07-29T23:24:22.314Z,10.95
2022-07-29T23:26:54.166Z,7.38
2022-07-29T23:29:25.491Z,13.43
2022-07-29T23:31:57.177Z,7.90
2022-07-29T23:34:28.734Z,11.95
2022-07-29T23:37:00.627Z,7.78
2022-07-29T23:39:32.065Z,8.30
2022-07-29T23:42:04.218Z,8.60
2022-07-29T23:47:07.014Z,7.80
2022-07-29T23:49:38.443Z,7.18
2022-07-29T23:52:10.059Z,8.32
2022-07-29T23:54:41.410Z,11.00
2022-07-29T23:57:12.635Z,12.37
2022-07-29T23:59:44.140Z,7.90
